Homeport Seattle

Current conditions, outlook, and status of Seattle.

 


//


Content-type:text/html

national weather service

2020/09/22 20:53 KSEA 222053Z 24008KT 10SM FEW030 BKN250 21/09 A3001 RMK AO2 SLP167 T02110094 58011
2020/09/22 20:53 KBFI 222053Z 24008KT 200V260 10SM FEW020 BKN250 22/07 A3000 RMK AO2 SLP158 T02220067 58013


  KSEA KBFI
  SeaTac Airport Boeing Field
day: 22 22
time: 2053 2053
type: Automated Automated
cond: Fair Fair
     
Winds    
     
mph: 9 9
mph gusting: 0 0
kts: 8 8
kts gusting: 0 0
direction: 240 240
direction: Southwest Southwest
     
Temperature and Humidity    
     
temp F: 69 71
dew point F: 48 44
temp C: 21 22
dew point C: 09 07
rel. humidity: 46 37
     
windchill F: 69 72
windchill C: 20 22
heat index F: 77 76
heat index C: 25 24
     
Clouds and Visibility    
     
cloud cover: Mostly Cloudy Mostly Cloudy
visibility mi: 10 10
visibility km: 16 16
     
Air pressure    
     
in HG: 30.01 30.00
mm HG: 762 762
kg/cm: 1.036293316 1.035948
psi: 14.73953154 14.73462
millibar: 1016 1015
     
Experimental and Esoteric    
     
prec tmp: T02110094 T02220067
storm:
sea inHG: 30.02 29.99
sea mmHG: 762 761
sea kgcm: 1.036749324 1.035831576
sea psi: 14.74601346 14.73296004
sea mbar: 1016 1015
     



NOAA Weather Radio Seattle -- KHB60
[ continuous ]

KHB60 coverage map

[ view larger map ]

 

2020.09.22

21 : 07 PST


Local Metric Time

8.80


Unix epoch

1600808877

 

stardate

weather

graphical weather

GD graphics
- gd thermometer
- wind dir
- wind speed

sun and moon

Fire Department 911 Incidents

[ NOAA weather radio ]

 


- * - poop - * -